createdAt,value
2022-09-28T00:01:20.087Z,0.80
2022-09-28T00:06:24.879Z,0.70
2022-09-28T00:11:28.430Z,0.60
2022-09-28T00:16:34.561Z,0.60
2022-09-28T00:21:40.287Z,0.70
2022-09-28T00:26:44.585Z,0.80
2022-09-28T00:31:48.368Z,0.80
2022-09-28T00:36:51.459Z,0.83
2022-09-28T00:41:54.868Z,0.50
2022-09-28T00:47:14.418Z,0.60
2022-09-28T00:52:26.833Z,0.80
2022-09-28T00:57:30.473Z,0.70
2022-09-28T01:02:33.021Z,0.53
2022-09-28T01:07:37.228Z,0.83
2022-09-28T01:12:39.731Z,0.50
2022-09-28T01:17:53.552Z,0.63
2022-09-28T01:23:31.988Z,0.80
2022-09-28T01:28:37.936Z,0.70
2022-09-28T01:33:48.561Z,0.80
2022-09-28T01:39:09.465Z,0.57
2022-09-28T01:44:17.152Z,0.90
2022-09-28T01:49:27.865Z,0.70
2022-09-28T01:54:38.190Z,0.60
2022-09-28T01:59:46.534Z,0.80
2022-09-28T02:04:56.369Z,0.60
2022-09-28T02:10:05.608Z,0.87
2022-09-28T02:15:41.112Z,0.67
2022-09-28T02:20:50.467Z,0.90
2022-09-28T02:26:01.940Z,0.77
2022-09-28T02:31:04.634Z,0.90
2022-09-28T02:36:07.606Z,1.03
2022-09-28T02:41:23.488Z,0.93
2022-09-28T02:46:42.866Z,0.80
2022-09-28T02:52:06.286Z,1.00
2022-09-28T02:57:30.231Z,1.20
2022-09-28T03:02:36.685Z,1.30
2022-09-28T03:08:03.193Z,1.00
2022-09-28T03:13:07.610Z,1.10
2022-09-28T03:18:11.442Z,1.33
2022-09-28T03:23:24.799Z,0.97
2022-09-28T03:28:28.044Z,1.10
2022-09-28T03:33:30.448Z,1.10
2022-09-28T03:38:33.003Z,1.00
2022-09-28T03:43:35.972Z,1.00
2022-09-28T03:48:41.580Z,1.00
2022-09-28T03:53:46.512Z,1.10
2022-09-28T03:58:49.436Z,0.93
2022-09-28T04:03:56.075Z,0.80
2022-09-28T04:08:58.998Z,1.00
2022-09-28T04:14:01.757Z,0.80
2022-09-28T04:19:05.801Z,1.10
2022-09-28T04:24:14.660Z,0.77
2022-09-28T04:29:17.904Z,0.70
2022-09-28T04:34:33.171Z,0.60
2022-09-28T04:39:37.996Z,0.50
2022-09-28T04:44:42.140Z,1.30
2022-09-28T04:49:45.755Z,0.60
2022-09-28T04:55:00.569Z,0.60
2022-09-28T05:00:03.875Z,0.80
2022-09-28T05:05:09.553Z,0.60
2022-09-28T05:10:20.711Z,0.80
2022-09-28T05:15:23.094Z,0.50
2022-09-28T05:20:25.523Z,0.90
2022-09-28T05:25:28.097Z,0.77
2022-09-28T05:30:52.476Z,0.60
2022-09-28T05:36:27.998Z,0.70
2022-09-28T05:41:30.543Z,1.07
2022-09-28T05:46:33.126Z,0.63
2022-09-28T05:51:37.141Z,0.90
2022-09-28T05:56:39.571Z,0.60
2022-09-28T06:01:43.434Z,1.10
2022-09-28T06:06:47.699Z,1.17
2022-09-28T06:11:51.187Z,0.80
2022-09-28T06:17:00.228Z,1.27
2022-09-28T06:22:02.871Z,0.87
2022-09-28T06:27:07.971Z,1.10
2022-09-28T06:32:12.430Z,1.10
2022-09-28T06:37:18.694Z,1.23
2022-09-28T06:42:22.076Z,1.30
2022-09-28T06:47:44.825Z,1.40
2022-09-28T06:52:57.260Z,1.37
2022-09-28T06:58:12.022Z,1.20
2022-09-28T07:03:17.178Z,1.20
2022-09-28T07:08:31.637Z,1.10
2022-09-28T07:13:53.993Z,1.40
2022-09-28T07:18:58.807Z,1.40
2022-09-28T07:24:01.510Z,1.33
2022-09-28T07:29:13.317Z,1.50
2022-09-28T07:34:43.858Z,1.57
2022-09-28T07:40:28.335Z,1.07
2022-09-28T07:45:34.107Z,1.40
2022-09-28T07:50:36.764Z,1.40
2022-09-28T07:55:55.844Z,1.40
2022-09-28T08:01:11.960Z,1.60
2022-09-28T08:06:19.188Z,1.20
2022-09-28T08:11:21.436Z,1.30
2022-09-28T08:17:02.411Z,1.30
2022-09-28T08:22:14.523Z,1.30
2022-09-28T08:27:18.490Z,1.40
2022-09-28T08:32:21.618Z,1.30
2022-09-28T08:37:59.304Z,1.30
2022-09-28T08:44:00.628Z,1.27
2022-09-28T08:49:47.575Z,1.30
2022-09-28T08:55:34.454Z,1.30
2022-09-28T09:00:47.646Z,1.40
2022-09-28T09:06:18.858Z,1.40
2022-09-28T09:11:43.933Z,1.50
2022-09-28T09:17:01.624Z,1.47
2022-09-28T09:22:42.617Z,1.10
2022-09-28T09:27:53.493Z,1.60
2022-09-28T09:33:30.736Z,1.30
2022-09-28T09:38:59.897Z,1.40
2022-09-28T09:44:52.419Z,1.40
2022-09-28T09:50:30.144Z,1.63
2022-09-28T09:55:40.725Z,1.50
2022-09-28T10:01:10.952Z,1.50
2022-09-28T10:06:39.180Z,1.60
2022-09-28T10:11:46.402Z,1.60
2022-09-28T10:16:53.783Z,1.80
2022-09-28T10:22:23.239Z,2.17
2022-09-28T10:27:31.967Z,1.63
2022-09-28T10:32:39.653Z,1.90
2022-09-28T10:38:03.347Z,1.50
2022-09-28T10:43:38.537Z,1.70
2022-09-28T10:49:07.023Z,1.63
2022-09-28T10:54:16.587Z,1.50
2022-09-28T10:59:30.808Z,1.73
2022-09-28T11:05:02.083Z,1.43
2022-09-28T11:10:26.146Z,1.30
2022-09-28T11:15:37.807Z,1.90
2022-09-28T11:20:44.799Z,1.40
2022-09-28T11:26:07.155Z,1.30
2022-09-28T11:31:10.418Z,1.20
2022-09-28T11:36:49.798Z,1.30
2022-09-28T11:42:07.671Z,1.40
2022-09-28T11:47:37.710Z,1.57
2022-09-28T11:53:00.520Z,1.30
2022-09-28T11:58:11.784Z,1.50
2022-09-28T12:03:25.180Z,1.10
2022-09-28T12:08:30.272Z,1.33
2022-09-28T12:13:44.761Z,1.13
2022-09-28T12:19:05.658Z,1.13
2022-09-28T12:24:23.660Z,1.20
2022-09-28T12:29:41.749Z,1.20
2022-09-28T12:34:44.703Z,1.17
2022-09-28T12:40:00.291Z,1.00
2022-09-28T12:45:38.929Z,1.37
2022-09-28T12:50:57.632Z,1.20
2022-09-28T12:56:29.549Z,1.07
2022-09-28T13:01:44.629Z,0.97
2022-09-28T13:06:47.364Z,1.10
2022-09-28T13:12:07.909Z,0.93
2022-09-28T13:17:19.234Z,1.10
2022-09-28T13:22:34.109Z,1.20
2022-09-28T13:27:40.847Z,1.10
2022-09-28T13:32:44.875Z,1.00
2022-09-28T13:37:49.013Z,1.30
2022-09-28T13:43:06.837Z,0.93
2022-09-28T13:48:12.319Z,1.00
2022-09-28T13:53:32.851Z,1.00
2022-09-28T13:58:47.100Z,1.00
2022-09-28T14:04:12.444Z,1.10
2022-09-28T14:09:21.118Z,1.00
2022-09-28T14:14:52.001Z,0.97
2022-09-28T14:20:00.828Z,1.27
2022-09-28T14:25:23.727Z,1.10
2022-09-28T14:30:43.462Z,1.03
2022-09-28T14:35:52.035Z,0.90
2022-09-28T14:41:10.872Z,1.10
2022-09-28T14:46:19.369Z,1.00
2022-09-28T14:51:30.194Z,1.00
2022-09-28T14:56:46.160Z,0.90
2022-09-28T15:02:12.499Z,0.97
2022-09-28T15:07:27.134Z,1.40
2022-09-28T15:12:32.743Z,1.03
2022-09-28T15:17:39.966Z,1.00
2022-09-28T15:22:47.863Z,1.00
2022-09-28T15:27:55.763Z,0.80
2022-09-28T15:33:18.957Z,0.83
2022-09-28T15:38:21.522Z,0.90
2022-09-28T15:43:29.125Z,0.90
2022-09-28T15:48:46.611Z,0.80
2022-09-28T15:54:01.096Z,0.87
2022-09-28T15:59:15.460Z,0.90
2022-09-28T16:04:39.442Z,1.47
2022-09-28T16:10:00.346Z,0.90
2022-09-28T16:15:14.271Z,1.20
2022-09-28T16:20:48.261Z,1.07
2022-09-28T16:26:02.057Z,1.30
2022-09-28T16:31:13.668Z,1.07
2022-09-28T16:36:17.662Z,2.23
2022-09-28T16:41:24.899Z,1.30
2022-09-28T16:46:37.614Z,1.07
2022-09-28T16:51:40.225Z,2.10
2022-09-28T16:56:42.665Z,1.70
2022-09-28T17:01:45.138Z,1.07
2022-09-28T17:06:47.961Z,1.40
2022-09-28T17:11:57.064Z,1.60
2022-09-28T17:17:09.009Z,1.57
2022-09-28T17:22:14.203Z,1.70
2022-09-28T17:27:20.989Z,1.43
2022-09-28T17:32:23.023Z,2.10
2022-09-28T17:37:25.015Z,2.10
2022-09-28T17:42:27.287Z,2.80
2022-09-28T17:47:34.087Z,2.30
2022-09-28T17:52:36.384Z,1.60
2022-09-28T17:57:38.532Z,1.77
2022-09-28T18:02:41.763Z,1.80
2022-09-28T18:07:47.590Z,2.00
2022-09-28T18:12:51.152Z,1.90
2022-09-28T18:17:53.419Z,1.80
2022-09-28T18:22:55.851Z,1.80
2022-09-28T18:28:00.101Z,1.97
2022-09-28T18:33:02.523Z,1.80
2022-09-28T18:38:06.358Z,1.80
2022-09-28T18:43:08.820Z,1.70
2022-09-28T18:48:11.195Z,1.80
2022-09-28T18:53:13.693Z,1.80
2022-09-28T18:58:16.264Z,1.83
2022-09-28T19:03:19.265Z,1.93
2022-09-28T19:08:25.497Z,2.30
2022-09-28T19:13:30.081Z,2.40
2022-09-28T19:18:32.568Z,2.40
2022-09-28T19:23:36.223Z,2.30
2022-09-28T19:28:38.711Z,2.30
2022-09-28T19:33:41.860Z,2.00
2022-09-28T19:38:44.801Z,2.10
2022-09-28T19:43:47.697Z,1.90
2022-09-28T19:48:50.223Z,1.87
2022-09-28T19:53:52.691Z,2.07
2022-09-28T19:58:55.156Z,1.90
2022-09-28T20:03:59.183Z,2.07
2022-09-28T20:09:01.638Z,1.97
2022-09-28T20:14:09.817Z,2.10
2022-09-28T20:19:12.987Z,1.80
2022-09-28T20:24:17.387Z,2.00
2022-09-28T20:29:20.337Z,1.77
2022-09-28T20:34:22.810Z,1.83
2022-09-28T20:39:25.279Z,1.83
2022-09-28T20:44:28.036Z,2.43
2022-09-28T20:49:31.243Z,2.03
2022-09-28T20:54:33.685Z,1.93
2022-09-28T20:59:36.078Z,1.93
2022-09-28T21:04:39.094Z,1.83
2022-09-28T21:09:41.557Z,1.80
2022-09-28T21:14:43.952Z,1.90
2022-09-28T21:19:46.507Z,1.60
2022-09-28T21:24:49.329Z,1.83
2022-09-28T21:29:51.819Z,2.10
2022-09-28T21:34:54.419Z,1.87
2022-09-28T21:39:56.836Z,2.10
2022-09-28T21:44:59.625Z,1.93
2022-09-28T21:50:02.088Z,1.67
2022-09-28T21:55:04.785Z,1.83
2022-09-28T22:00:08.077Z,2.20
2022-09-28T22:05:11.823Z,1.80
2022-09-28T22:10:15.421Z,1.70
2022-09-28T22:15:18.312Z,1.83
2022-09-28T22:20:20.935Z,1.87
2022-09-28T22:25:23.307Z,1.50
2022-09-28T22:30:25.684Z,1.77
2022-09-28T22:35:28.094Z,1.77
2022-09-28T22:40:30.577Z,2.10
2022-09-28T22:45:33.008Z,2.47
2022-09-28T22:50:35.443Z,1.90
2022-09-28T22:55:37.839Z,1.80
2022-09-28T23:00:40.688Z,2.03
2022-09-28T23:05:51.316Z,2.47
2022-09-28T23:10:53.764Z,2.00
2022-09-28T23:16:20.852Z,1.80
2022-09-28T23:21:25.823Z,1.60
2022-09-28T23:26:31.901Z,1.70
2022-09-28T23:31:34.425Z,1.93
2022-09-28T23:36:36.879Z,1.83
2022-09-28T23:41:39.951Z,1.77
2022-09-28T23:46:43.032Z,2.10
2022-09-28T23:51:45.788Z,2.33
2022-09-28T23:56:48.688Z,2.27
